sensor_id;sensor_type;location;lat;lon;timestamp;temperature;humidity
38239;DHT22;24035;48.900;9.188;2022-11-03T00:01:53;7.20;99.90
38239;DHT22;24035;48.900;9.188;2022-11-03T00:04:20;7.10;99.90
38239;DHT22;24035;48.900;9.188;2022-11-03T00:06:49;7.10;1.00
38239;DHT22;24035;48.900;9.188;2022-11-03T00:09:16;7.10;99.90
38239;DHT22;24035;48.900;9.188;2022-11-03T00:11:43;6.90;99.90
38239;DHT22;24035;48.900;9.188;2022-11-03T00:14:10;6.80;99.90
38239;DHT22;24035;48.900;9.188;2022-11-03T00:16:37;6.80;1.00
38239;DHT22;24035;48.900;9.188;2022-11-03T00:19:03;6.80;1.00
38239;DHT22;24035;48.900;9.188;2022-11-03T00:21:29;6.80;1.00
38239;DHT22;24035;48.900;9.188;2022-11-03T00:23:55;6.80;1.00
38239;DHT22;24035;48.900;9.188;2022-11-03T00:26:26;6.60;1.00
38239;DHT22;24035;48.900;9.188;2022-11-03T00:28:57;6.60;1.00
38239;DHT22;24035;48.900;9.188;2022-11-03T00:31:35;6.60;1.00
38239;DHT22;24035;48.900;9.188;2022-11-03T00:34:02;6.60;99.90
38239;DHT22;24035;48.900;9.188;2022-11-03T00:36:36;6.60;99.90
38239;DHT22;24035;48.900;9.188;2022-11-03T00:39:03;6.70;1.00
38239;DHT22;24035;48.900;9.188;2022-11-03T00:41:29;6.60;1.00
38239;DHT22;24035;48.900;9.188;2022-11-03T00:43:55;6.50;99.90
38239;DHT22;24035;48.900;9.188;2022-11-03T00:46:22;6.50;1.00
38239;DHT22;24035;48.900;9.188;2022-11-03T00:48:48;6.60;1.00
38239;DHT22;24035;48.900;9.188;2022-11-03T00:51:20;6.60;1.00
38239;DHT22;24035;48.900;9.188;2022-11-03T00:56:20;6.60;99.30
38239;DHT22;24035;48.900;9.188;2022-11-03T00:58:47;6.70;99.90
38239;DHT22;24035;48.900;9.188;2022-11-03T01:01:18;6.80;99.90
38239;DHT22;24035;48.900;9.188;2022-11-03T01:03:45;6.80;99.90
38239;DHT22;24035;48.900;9.188;2022-11-03T01:06:31;6.90;1.00
38239;DHT22;24035;48.900;9.188;2022-11-03T01:09:20;6.90;99.90
38239;DHT22;24035;48.900;9.188;2022-11-03T01:12:00;7.00;99.90
38239;DHT22;24035;48.900;9.188;2022-11-03T01:14:30;6.90;1.00
38239;DHT22;24035;48.900;9.188;2022-11-03T01:16:56;6.90;1.00
38239;DHT22;24035;48.900;9.188;2022-11-03T01:19:22;6.90;1.00
38239;DHT22;24035;48.900;9.188;2022-11-03T01:21:48;6.90;1.00
38239;DHT22;24035;48.900;9.188;2022-11-03T01:24:14;6.90;1.00
38239;DHT22;24035;48.900;9.188;2022-11-03T01:26:40;6.90;1.00
38239;DHT22;24035;48.900;9.188;2022-11-03T01:29:05;6.80;1.00
38239;DHT22;24035;48.900;9.188;2022-11-03T01:31:31;6.80;1.00
38239;DHT22;24035;48.900;9.188;2022-11-03T01:33:57;6.70;1.00
38239;DHT22;24035;48.900;9.188;2022-11-03T01:36:23;6.70;1.00
38239;DHT22;24035;48.900;9.188;2022-11-03T01:38:49;6.60;1.00
38239;DHT22;24035;48.900;9.188;2022-11-03T01:41:17;6.60;1.00
38239;DHT22;24035;48.900;9.188;2022-11-03T01:43:43;6.50;1.00
38239;DHT22;24035;48.900;9.188;2022-11-03T01:48:39;6.50;27.70
38239;DHT22;24035;48.900;9.188;2022-11-03T01:51:07;6.40;99.90
38239;DHT22;24035;48.900;9.188;2022-11-03T01:53:34;6.50;99.90
38239;DHT22;24035;48.900;9.188;2022-11-03T01:56:03;6.40;79.50
38239;DHT22;24035;48.900;9.188;2022-11-03T01:58:32;6.40;99.90
38239;DHT22;24035;48.900;9.188;2022-11-03T02:00:59;6.40;99.90
38239;DHT22;24035;48.900;9.188;2022-11-03T02:03:30;6.40;99.90
38239;DHT22;24035;48.900;9.188;2022-11-03T02:05:56;6.50;1.00
38239;DHT22;24035;48.900;9.188;2022-11-03T02:08:27;6.60;99.90
38239;DHT22;24035;48.900;9.188;2022-11-03T02:10:56;6.70;1.00
38239;DHT22;24035;48.900;9.188;2022-11-03T02:13:24;6.70;1.00
38239;DHT22;24035;48.900;9.188;2022-11-03T02:15:56;6.70;1.00
38239;DHT22;24035;48.900;9.188;2022-11-03T02:18:28;6.70;1.00
38239;DHT22;24035;48.900;9.188;2022-11-03T02:21:24;6.70;1.00
38239;DHT22;24035;48.900;9.188;2022-11-03T02:26:35;6.70;99.90
38239;DHT22;24035;48.900;9.188;2022-11-03T02:29:01;6.60;99.90
38239;DHT22;24035;48.900;9.188;2022-11-03T02:31:40;6.60;99.90
38239;DHT22;24035;48.900;9.188;2022-11-03T02:34:07;6.60;99.90
38239;DHT22;24035;48.900;9.188;2022-11-03T02:36:54;6.50;76.90
38239;DHT22;24035;48.900;9.188;2022-11-03T02:39:34;6.40;95.20
38239;DHT22;24035;48.900;9.188;2022-11-03T02:42:02;6.40;99.90
38239;DHT22;24035;48.900;9.188;2022-11-03T02:44:31;6.30;99.90
38239;DHT22;24035;48.900;9.188;2022-11-03T02:47:00;6.20;99.90
38239;DHT22;24035;48.900;9.188;2022-11-03T02:49:27;6.10;99.90
38239;DHT22;24035;48.900;9.188;2022-11-03T02:52:03;6.10;99.90
38239;DHT22;24035;48.900;9.188;2022-11-03T02:54:39;6.00;99.90
38239;DHT22;24035;48.900;9.188;2022-11-03T02:57:17;6.00;99.90
38239;DHT22;24035;48.900;9.188;2022-11-03T03:02:19;5.70;1.00
38239;DHT22;24035;48.900;9.188;2022-11-03T03:04:55;5.60;1.00
38239;DHT22;24035;48.900;9.188;2022-11-03T03:07:25;5.50;1.00
38239;DHT22;24035;48.900;9.188;2022-11-03T03:09:57;5.40;1.00
38239;DHT22;24035;48.900;9.188;2022-11-03T03:12:25;5.40;99.90
38239;DHT22;24035;48.900;9.188;2022-11-03T03:14:53;5.30;99.90
38239;DHT22;24035;48.900;9.188;2022-11-03T03:17:48;5.40;1.00
38239;DHT22;24035;48.900;9.188;2022-11-03T03:20:40;5.40;1.00
38239;DHT22;24035;48.900;9.188;2022-11-03T03:23:25;5.40;1.00
38239;DHT22;24035;48.900;9.188;2022-11-03T03:25:59;5.50;99.90
38239;DHT22;24035;48.900;9.188;2022-11-03T03:28:32;5.50;99.90
38239;DHT22;24035;48.900;9.188;2022-11-03T03:31:03;5.50;90.20
38239;DHT22;24035;48.900;9.188;2022-11-03T03:33:31;5.50;99.90
38239;DHT22;24035;48.900;9.188;2022-11-03T03:35:59;5.40;40.30
38239;DHT22;24035;48.900;9.188;2022-11-03T03:38:32;5.40;16.40
38239;DHT22;24035;48.900;9.188;2022-11-03T03:40:59;5.50;99.90
38239;DHT22;24035;48.900;9.188;2022-11-03T03:43:28;5.50;1.00
38239;DHT22;24035;48.900;9.188;2022-11-03T03:45:59;5.50;1.00
38239;DHT22;24035;48.900;9.188;2022-11-03T03:48:26;5.40;99.90
38239;DHT22;24035;48.900;9.188;2022-11-03T03:50:52;5.50;1.00
38239;DHT22;24035;48.900;9.188;2022-11-03T03:53:18;5.40;99.90
38239;DHT22;24035;48.900;9.188;2022-11-03T03:55:47;5.50;1.00
38239;DHT22;24035;48.900;9.188;2022-11-03T03:58:14;5.40;1.00
38239;DHT22;24035;48.900;9.188;2022-11-03T04:00:40;5.40;99.90
38239;DHT22;24035;48.900;9.188;2022-11-03T04:03:14;5.30;99.90
38239;DHT22;24035;48.900;9.188;2022-11-03T04:05:40;5.30;99.90
38239;DHT22;24035;48.900;9.188;2022-11-03T04:08:05;5.20;99.90
38239;DHT22;24035;48.900;9.188;2022-11-03T04:10:31;5.20;99.90
38239;DHT22;24035;48.900;9.188;2022-11-03T04:12:57;5.20;99.90
38239;DHT22;24035;48.900;9.188;2022-11-03T04:15:41;5.20;99.90
38239;DHT22;24035;48.900;9.188;2022-11-03T04:18:17;5.20;1.00
38239;DHT22;24035;48.900;9.188;2022-11-03T04:21:02;5.40;1.00
38239;DHT22;24035;48.900;9.188;2022-11-03T04:23:46;5.40;1.00
38239;DHT22;24035;48.900;9.188;2022-11-03T04:26:17;5.40;1.00
38239;DHT22;24035;48.900;9.188;2022-11-03T04:28:44;5.50;1.00
38239;DHT22;24035;48.900;9.188;2022-11-03T04:31:14;5.50;1.00
38239;DHT22;24035;48.900;9.188;2022-11-03T04:33:41;5.60;30.50
38239;DHT22;24035;48.900;9.188;2022-11-03T04:36:18;5.60;63.10
38239;DHT22;24035;48.900;9.188;2022-11-03T04:38:45;5.50;1.00
38239;DHT22;24035;48.900;9.188;2022-11-03T04:41:23;5.50;1.00
38239;DHT22;24035;48.900;9.188;2022-11-03T04:43:50;5.50;1.00
38239;DHT22;24035;48.900;9.188;2022-11-03T04:46:26;5.40;1.00
38239;DHT22;24035;48.900;9.188;2022-11-03T04:48:53;5.40;1.00
38239;DHT22;24035;48.900;9.188;2022-11-03T04:51:23;5.50;1.00
38239;DHT22;24035;48.900;9.188;2022-11-03T04:54:18;5.50;1.00
38239;DHT22;24035;48.900;9.188;2022-11-03T04:56:43;5.40;1.00
38239;DHT22;24035;48.900;9.188;2022-11-03T04:59:10;5.40;1.00
38239;DHT22;24035;48.900;9.188;2022-11-03T05:01:37;5.30;1.00
38239;DHT22;24035;48.900;9.188;2022-11-03T05:04:10;5.30;1.00
38239;DHT22;24035;48.900;9.188;2022-11-03T05:06:37;5.30;1.00
38239;DHT22;24035;48.900;9.188;2022-11-03T05:09:15;5.40;51.00
38239;DHT22;24035;48.900;9.188;2022-11-03T05:11:44;5.30;1.00
38239;DHT22;24035;48.900;9.188;2022-11-03T05:14:19;5.30;1.00
38239;DHT22;24035;48.900;9.188;2022-11-03T05:16:46;5.30;11.70
38239;DHT22;24035;48.900;9.188;2022-11-03T05:19:27;5.50;99.90
38239;DHT22;24035;48.900;9.188;2022-11-03T05:21:55;5.50;99.90
38239;DHT22;24035;48.900;9.188;2022-11-03T05:24:23;5.50;99.90
38239;DHT22;24035;48.900;9.188;2022-11-03T05:26:52;5.50;99.90
38239;DHT22;24035;48.900;9.188;2022-11-03T05:29:21;5.60;99.90
38239;DHT22;24035;48.900;9.188;2022-11-03T05:31:50;5.70;99.90
38239;DHT22;24035;48.900;9.188;2022-11-03T05:34:42;5.70;99.90
38239;DHT22;24035;48.900;9.188;2022-11-03T05:37:22;5.80;99.90
38239;DHT22;24035;48.900;9.188;2022-11-03T05:39:49;5.90;99.90
38239;DHT22;24035;48.900;9.188;2022-11-03T05:44:48;5.80;99.90
38239;DHT22;24035;48.900;9.188;2022-11-03T05:49:44;5.70;42.30
38239;DHT22;24035;48.900;9.188;2022-11-03T05:52:19;5.60;1.00
38239;DHT22;24035;48.900;9.188;2022-11-03T05:54:46;5.60;1.00
38239;DHT22;24035;48.900;9.188;2022-11-03T05:57:15;5.60;1.00
38239;DHT22;24035;48.900;9.188;2022-11-03T05:59:44;5.50;1.00
38239;DHT22;24035;48.900;9.188;2022-11-03T06:02:35;5.60;16.00
38239;DHT22;24035;48.900;9.188;2022-11-03T06:05:14;5.60;42.50
38239;DHT22;24035;48.900;9.188;2022-11-03T06:07:42;5.70;98.50
38239;DHT22;24035;48.900;9.188;2022-11-03T06:12:46;5.70;99.90
38239;DHT22;24035;48.900;9.188;2022-11-03T06:15:23;5.70;99.90
38239;DHT22;24035;48.900;9.188;2022-11-03T06:17:51;5.80;99.90
38239;DHT22;24035;48.900;9.188;2022-11-03T06:20:20;5.80;99.90
38239;DHT22;24035;48.900;9.188;2022-11-03T06:22:47;5.80;99.90
38239;DHT22;24035;48.900;9.188;2022-11-03T06:25:32;5.80;99.90
38239;DHT22;24035;48.900;9.188;2022-11-03T06:28:02;5.70;16.10
38239;DHT22;24035;48.900;9.188;2022-11-03T06:30:32;5.70;21.50
38239;DHT22;24035;48.900;9.188;2022-11-03T06:33:09;5.70;41.60
38239;DHT22;24035;48.900;9.188;2022-11-03T06:35:37;5.60;1.00
38239;DHT22;24035;48.900;9.188;2022-11-03T06:38:08;5.60;1.00
38239;DHT22;24035;48.900;9.188;2022-11-03T06:40:37;5.70;49.00
38239;DHT22;24035;48.900;9.188;2022-11-03T06:43:15;5.60;99.90
38239;DHT22;24035;48.900;9.188;2022-11-03T06:45:49;5.80;99.90
38239;DHT22;24035;48.900;9.188;2022-11-03T06:48:23;5.90;99.90
38239;DHT22;24035;48.900;9.188;2022-11-03T06:50:49;6.00;99.90
38239;DHT22;24035;48.900;9.188;2022-11-03T06:53:24;6.00;99.90
38239;DHT22;24035;48.900;9.188;2022-11-03T06:55:51;6.20;1.00
38239;DHT22;24035;48.900;9.188;2022-11-03T06:58:31;6.30;1.00
38239;DHT22;24035;48.900;9.188;2022-11-03T07:01:02;6.40;1.00
38239;DHT22;24035;48.900;9.188;2022-11-03T07:03:30;6.40;99.90
38239;DHT22;24035;48.900;9.188;2022-11-03T07:06:01;6.50;99.90
38239;DHT22;24035;48.900;9.188;2022-11-03T07:08:35;6.60;99.90
38239;DHT22;24035;48.900;9.188;2022-11-03T07:13:35;6.70;99.90
38239;DHT22;24035;48.900;9.188;2022-11-03T07:16:01;6.80;99.90
38239;DHT22;24035;48.900;9.188;2022-11-03T07:18:33;6.90;99.90
38239;DHT22;24035;48.900;9.188;2022-11-03T07:21:05;6.90;1.00
38239;DHT22;24035;48.900;9.188;2022-11-03T07:23:31;7.00;1.00
38239;DHT22;24035;48.900;9.188;2022-11-03T07:26:00;7.10;1.00
38239;DHT22;24035;48.900;9.188;2022-11-03T07:28:31;7.20;1.00
38239;DHT22;24035;48.900;9.188;2022-11-03T07:30:58;7.30;1.00
38239;DHT22;24035;48.900;9.188;2022-11-03T07:33:27;7.40;1.00
38239;DHT22;24035;48.900;9.188;2022-11-03T07:35:55;7.50;99.90
38239;DHT22;24035;48.900;9.188;2022-11-03T07:38:23;7.60;99.90
38239;DHT22;24035;48.900;9.188;2022-11-03T07:40:50;7.70;1.00
38239;DHT22;24035;48.900;9.188;2022-11-03T07:43:31;7.80;1.00
38239;DHT22;24035;48.900;9.188;2022-11-03T07:46:02;7.90;1.00
38239;DHT22;24035;48.900;9.188;2022-11-03T07:54:08;8.10;1.00
38239;DHT22;24035;48.900;9.188;2022-11-03T07:59:10;8.30;99.90
38239;DHT22;24035;48.900;9.188;2022-11-03T08:02:00;8.40;1.00
38239;DHT22;24035;48.900;9.188;2022-11-03T08:04:32;8.50;99.90
38239;DHT22;24035;48.900;9.188;2022-11-03T08:06:59;8.60;99.90
38239;DHT22;24035;48.900;9.188;2022-11-03T08:09:25;8.80;1.00
38239;DHT22;24035;48.900;9.188;2022-11-03T08:11:52;8.90;1.00
38239;DHT22;24035;48.900;9.188;2022-11-03T08:14:18;8.90;99.90
38239;DHT22;24035;48.900;9.188;2022-11-03T08:16:43;9.00;1.00
38239;DHT22;24035;48.900;9.188;2022-11-03T08:19:09;9.00;1.00
38239;DHT22;24035;48.900;9.188;2022-11-03T08:21:35;9.10;1.00
38239;DHT22;24035;48.900;9.188;2022-11-03T08:24:00;9.10;1.00
38239;DHT22;24035;48.900;9.188;2022-11-03T08:26:26;9.20;1.00
38239;DHT22;24035;48.900;9.188;2022-11-03T08:28:52;9.40;99.90
38239;DHT22;24035;48.900;9.188;2022-11-03T08:31:18;9.50;1.00
38239;DHT22;24035;48.900;9.188;2022-11-03T08:33:43;9.60;99.90
38239;DHT22;24035;48.900;9.188;2022-11-03T08:36:09;9.70;21.80
38239;DHT22;24035;48.900;9.188;2022-11-03T08:38:35;9.80;1.00
38239;DHT22;24035;48.900;9.188;2022-11-03T08:41:01;9.80;1.00
38239;DHT22;24035;48.900;9.188;2022-11-03T08:43:27;9.80;1.00
38239;DHT22;24035;48.900;9.188;2022-11-03T08:45:53;9.90;1.00
38239;DHT22;24035;48.900;9.188;2022-11-03T08:48:24;10.10;1.00
38239;DHT22;24035;48.900;9.188;2022-11-03T08:50:52;10.10;1.00
38239;DHT22;24035;48.900;9.188;2022-11-03T08:53:23;10.40;1.00
38239;DHT22;24035;48.900;9.188;2022-11-03T08:55:50;10.50;1.00
38239;DHT22;24035;48.900;9.188;2022-11-03T08:58:16;10.40;1.00
38239;DHT22;24035;48.900;9.188;2022-11-03T09:00:42;10.60;1.00
38239;DHT22;24035;48.900;9.188;2022-11-03T09:03:07;10.80;1.00
38239;DHT22;24035;48.900;9.188;2022-11-03T09:05:33;11.00;1.00
38239;DHT22;24035;48.900;9.188;2022-11-03T09:07:59;11.00;1.00
38239;DHT22;24035;48.900;9.188;2022-11-03T09:10:24;10.90;1.00
38239;DHT22;24035;48.900;9.188;2022-11-03T09:12:51;11.00;1.00
38239;DHT22;24035;48.900;9.188;2022-11-03T09:15:17;10.90;1.00
38239;DHT22;24035;48.900;9.188;2022-11-03T09:17:43;11.00;1.00
38239;DHT22;24035;48.900;9.188;2022-11-03T09:20:09;11.00;1.00
38239;DHT22;24035;48.900;9.188;2022-11-03T09:22:35;11.10;1.00
38239;DHT22;24035;48.900;9.188;2022-11-03T09:25:00;11.10;1.00
38239;DHT22;24035;48.900;9.188;2022-11-03T09:27:26;11.10;1.00
38239;DHT22;24035;48.900;9.188;2022-11-03T09:29:52;11.20;1.00
38239;DHT22;24035;48.900;9.188;2022-11-03T09:32:17;11.10;1.00
38239;DHT22;24035;48.900;9.188;2022-11-03T09:34:44;11.30;1.00
38239;DHT22;24035;48.900;9.188;2022-11-03T09:37:09;11.50;99.90
38239;DHT22;24035;48.900;9.188;2022-11-03T09:39:35;11.60;99.90
38239;DHT22;24035;48.900;9.188;2022-11-03T09:42:01;11.70;73.10
38239;DHT22;24035;48.900;9.188;2022-11-03T09:44:31;11.80;91.30
38239;DHT22;24035;48.900;9.188;2022-11-03T09:47:01;12.00;1.00
38239;DHT22;24035;48.900;9.188;2022-11-03T09:49:30;12.10;1.00
38239;DHT22;24035;48.900;9.188;2022-11-03T09:51:57;12.30;1.00
38239;DHT22;24035;48.900;9.188;2022-11-03T09:54:23;12.40;1.00
38239;DHT22;24035;48.900;9.188;2022-11-03T09:56:48;12.60;1.00
38239;DHT22;24035;48.900;9.188;2022-11-03T09:59:22;12.90;1.00
38239;DHT22;24035;48.900;9.188;2022-11-03T10:01:49;13.00;1.00
38239;DHT22;24035;48.900;9.188;2022-11-03T10:04:26;13.30;1.00
38239;DHT22;24035;48.900;9.188;2022-11-03T10:06:56;13.50;99.90
38239;DHT22;24035;48.900;9.188;2022-11-03T10:09:22;13.60;99.90
38239;DHT22;24035;48.900;9.188;2022-11-03T10:11:51;13.70;99.90
38239;DHT22;24035;48.900;9.188;2022-11-03T10:14:18;13.60;99.90
38239;DHT22;24035;48.900;9.188;2022-11-03T10:16:51;13.50;99.90
38239;DHT22;24035;48.900;9.188;2022-11-03T10:19:17;13.50;99.90
38239;DHT22;24035;48.900;9.188;2022-11-03T10:21:44;13.50;99.90
38239;DHT22;24035;48.900;9.188;2022-11-03T10:24:11;13.60;99.90
38239;DHT22;24035;48.900;9.188;2022-11-03T10:29:16;13.80;99.90
38239;DHT22;24035;48.900;9.188;2022-11-03T10:31:44;14.00;99.90
38239;DHT22;24035;48.900;9.188;2022-11-03T10:34:26;13.90;99.90
38239;DHT22;24035;48.900;9.188;2022-11-03T10:37:18;14.00;99.90
38239;DHT22;24035;48.900;9.188;2022-11-03T10:39:49;14.00;99.90
38239;DHT22;24035;48.900;9.188;2022-11-03T10:42:21;14.10;99.90
38239;DHT22;24035;48.900;9.188;2022-11-03T10:44:51;14.20;99.90
38239;DHT22;24035;48.900;9.188;2022-11-03T10:47:30;14.30;93.10
38239;DHT22;24035;48.900;9.188;2022-11-03T10:49:56;14.50;9.70
38239;DHT22;24035;48.900;9.188;2022-11-03T10:52:27;14.30;99.90
38239;DHT22;24035;48.900;9.188;2022-11-03T10:54:57;14.50;18.40
38239;DHT22;24035;48.900;9.188;2022-11-03T10:57:24;14.70;24.00
38239;DHT22;24035;48.900;9.188;2022-11-03T10:59:52;14.60;1.00
38239;DHT22;24035;48.900;9.188;2022-11-03T11:02:24;14.70;9.40
38239;DHT22;24035;48.900;9.188;2022-11-03T11:04:59;14.80;1.00
38239;DHT22;24035;48.900;9.188;2022-11-03T11:07:33;14.60;1.00
38239;DHT22;24035;48.900;9.188;2022-11-03T11:10:06;14.70;23.60
38239;DHT22;24035;48.900;9.188;2022-11-03T11:12:32;14.80;1.00
38239;DHT22;24035;48.900;9.188;2022-11-03T11:15:03;14.70;1.00
38239;DHT22;24035;48.900;9.188;2022-11-03T11:22:48;14.80;1.00
38239;DHT22;24035;48.900;9.188;2022-11-03T11:25:17;14.80;1.00
38239;DHT22;24035;48.900;9.188;2022-11-03T11:27:53;14.70;1.00
38239;DHT22;24035;48.900;9.188;2022-11-03T11:35:16;14.80;1.00
38239;DHT22;24035;48.900;9.188;2022-11-03T11:37:43;14.70;1.00
38239;DHT22;24035;48.900;9.188;2022-11-03T11:48:32;14.90;1.00
38239;DHT22;24035;48.900;9.188;2022-11-03T11:50:59;15.00;1.00
38239;DHT22;24035;48.900;9.188;2022-11-03T11:53:26;15.10;1.00
38239;DHT22;24035;48.900;9.188;2022-11-03T11:56:00;15.00;1.00
38239;DHT22;24035;48.900;9.188;2022-11-03T11:58:47;15.00;1.00
38239;DHT22;24035;48.900;9.188;2022-11-03T12:03:48;15.20;1.00
38239;DHT22;24035;48.900;9.188;2022-11-03T12:06:15;15.20;1.00
38239;DHT22;24035;48.900;9.188;2022-11-03T12:08:41;15.10;1.00
38239;DHT22;24035;48.900;9.188;2022-11-03T12:11:10;15.00;1.00
38239;DHT22;24035;48.900;9.188;2022-11-03T12:13:44;14.90;1.00
38239;DHT22;24035;48.900;9.188;2022-11-03T12:16:44;15.00;40.90
38239;DHT22;24035;48.900;9.188;2022-11-03T12:19:35;15.20;1.00
38239;DHT22;24035;48.900;9.188;2022-11-03T12:22:05;15.00;1.00
38239;DHT22;24035;48.900;9.188;2022-11-03T12:26:58;15.10;1.00
38239;DHT22;24035;48.900;9.188;2022-11-03T12:29:24;14.90;1.00
38239;DHT22;24035;48.900;9.188;2022-11-03T12:31:50;14.90;1.00
38239;DHT22;24035;48.900;9.188;2022-11-03T12:34:16;14.90;30.10
38239;DHT22;24035;48.900;9.188;2022-11-03T12:36:45;14.80;44.20
38239;DHT22;24035;48.900;9.188;2022-11-03T12:39:11;14.70;99.90
38239;DHT22;24035;48.900;9.188;2022-11-03T12:41:37;14.60;99.90
38239;DHT22;24035;48.900;9.188;2022-11-03T12:44:04;14.50;99.90
38239;DHT22;24035;48.900;9.188;2022-11-03T12:46:29;14.40;99.90
38239;DHT22;24035;48.900;9.188;2022-11-03T12:48:55;14.40;99.90
38239;DHT22;24035;48.900;9.188;2022-11-03T12:51:22;14.50;99.90
38239;DHT22;24035;48.900;9.188;2022-11-03T12:53:52;14.40;99.90
38239;DHT22;24035;48.900;9.188;2022-11-03T12:56:18;14.40;99.90
38239;DHT22;24035;48.900;9.188;2022-11-03T12:58:44;14.40;99.90
38239;DHT22;24035;48.900;9.188;2022-11-03T13:01:10;14.30;99.90
38239;DHT22;24035;48.900;9.188;2022-11-03T13:03:36;14.30;99.90
38239;DHT22;24035;48.900;9.188;2022-11-03T13:06:03;14.20;99.90
38239;DHT22;24035;48.900;9.188;2022-11-03T13:08:32;14.20;99.90
38239;DHT22;24035;48.900;9.188;2022-11-03T13:10:58;14.20;99.90
38239;DHT22;24035;48.900;9.188;2022-11-03T13:13:24;14.20;99.90
38239;DHT22;24035;48.900;9.188;2022-11-03T13:15:51;14.10;99.90
38239;DHT22;24035;48.900;9.188;2022-11-03T13:18:18;14.00;99.90
38239;DHT22;24035;48.900;9.188;2022-11-03T13:20:45;14.00;99.90
38239;DHT22;24035;48.900;9.188;2022-11-03T13:23:11;14.10;99.90
38239;DHT22;24035;48.900;9.188;2022-11-03T13:25:37;14.00;99.90
38239;DHT22;24035;48.900;9.188;2022-11-03T13:28:03;14.00;99.90
38239;DHT22;24035;48.900;9.188;2022-11-03T13:30:30;13.80;99.90
38239;DHT22;24035;48.900;9.188;2022-11-03T13:32:56;13.80;99.90
38239;DHT22;24035;48.900;9.188;2022-11-03T13:35:22;13.80;99.90
38239;DHT22;24035;48.900;9.188;2022-11-03T13:37:48;13.90;99.90
38239;DHT22;24035;48.900;9.188;2022-11-03T13:40:14;13.90;99.90
38239;DHT22;24035;48.900;9.188;2022-11-03T13:42:40;13.80;99.90
38239;DHT22;24035;48.900;9.188;2022-11-03T13:45:07;13.90;99.90
38239;DHT22;24035;48.900;9.188;2022-11-03T13:47:33;14.00;79.20
38239;DHT22;24035;48.900;9.188;2022-11-03T13:49:59;14.00;99.90
38239;DHT22;24035;48.900;9.188;2022-11-03T13:52:26;13.90;99.90
38239;DHT22;24035;48.900;9.188;2022-11-03T13:54:52;14.00;69.10
38239;DHT22;24035;48.900;9.188;2022-11-03T13:57:19;14.00;99.90
38239;DHT22;24035;48.900;9.188;2022-11-03T13:59:45;13.90;99.90
38239;DHT22;24035;48.900;9.188;2022-11-03T14:02:11;14.00;99.90
38239;DHT22;24035;48.900;9.188;2022-11-03T14:04:38;14.00;99.90
38239;DHT22;24035;48.900;9.188;2022-11-03T14:07:06;13.90;99.90
38239;DHT22;24035;48.900;9.188;2022-11-03T14:09:32;13.90;99.90
38239;DHT22;24035;48.900;9.188;2022-11-03T14:11:58;13.90;99.90
38239;DHT22;24035;48.900;9.188;2022-11-03T14:14:42;14.00;99.90
38239;DHT22;24035;48.900;9.188;2022-11-03T14:17:08;13.90;99.90
38239;DHT22;24035;48.900;9.188;2022-11-03T14:19:34;13.90;99.90
38239;DHT22;24035;48.900;9.188;2022-11-03T14:22:00;14.00;99.90
38239;DHT22;24035;48.900;9.188;2022-11-03T14:24:26;13.90;99.90
38239;DHT22;24035;48.900;9.188;2022-11-03T14:26:51;13.90;99.90
38239;DHT22;24035;48.900;9.188;2022-11-03T14:29:17;13.90;99.90
38239;DHT22;24035;48.900;9.188;2022-11-03T14:31:43;14.00;99.90
38239;DHT22;24035;48.900;9.188;2022-11-03T14:34:09;13.90;99.90
38239;DHT22;24035;48.900;9.188;2022-11-03T14:36:35;13.90;99.90
38239;DHT22;24035;48.900;9.188;2022-11-03T14:39:01;13.80;99.90
38239;DHT22;24035;48.900;9.188;2022-11-03T14:41:26;13.70;1.00
38239;DHT22;24035;48.900;9.188;2022-11-03T14:44:11;13.80;1.00
38239;DHT22;24035;48.900;9.188;2022-11-03T14:46:37;13.60;1.00
38239;DHT22;24035;48.900;9.188;2022-11-03T14:49:03;13.50;1.00
38239;DHT22;24035;48.900;9.188;2022-11-03T14:51:29;13.40;1.00
38239;DHT22;24035;48.900;9.188;2022-11-03T14:53:55;13.40;1.00
38239;DHT22;24035;48.900;9.188;2022-11-03T14:56:22;13.40;1.00
38239;DHT22;24035;48.900;9.188;2022-11-03T14:58:48;13.30;1.00
38239;DHT22;24035;48.900;9.188;2022-11-03T15:01:17;13.20;1.00
38239;DHT22;24035;48.900;9.188;2022-11-03T15:03:43;13.30;1.00
38239;DHT22;24035;48.900;9.188;2022-11-03T15:06:10;13.20;1.00
38239;DHT22;24035;48.900;9.188;2022-11-03T15:08:36;13.10;1.00
38239;DHT22;24035;48.900;9.188;2022-11-03T15:11:03;13.20;1.00
38239;DHT22;24035;48.900;9.188;2022-11-03T15:13:30;13.20;1.00
38239;DHT22;24035;48.900;9.188;2022-11-03T15:15:55;13.10;1.00
38239;DHT22;24035;48.900;9.188;2022-11-03T15:18:21;13.00;1.00
38239;DHT22;24035;48.900;9.188;2022-11-03T15:20:47;12.90;1.00
38239;DHT22;24035;48.900;9.188;2022-11-03T15:23:12;12.90;96.90
38239;DHT22;24035;48.900;9.188;2022-11-03T15:25:38;12.90;42.30
38239;DHT22;24035;48.900;9.188;2022-11-03T15:28:04;12.90;91.70
38239;DHT22;24035;48.900;9.188;2022-11-03T15:30:30;13.00;36.20
38239;DHT22;24035;48.900;9.188;2022-11-03T15:32:59;13.00;65.70
38239;DHT22;24035;48.900;9.188;2022-11-03T15:35:25;13.00;76.50
38239;DHT22;24035;48.900;9.188;2022-11-03T15:37:51;12.90;99.90
38239;DHT22;24035;48.900;9.188;2022-11-03T15:40:18;12.90;96.60
38239;DHT22;24035;48.900;9.188;2022-11-03T15:42:44;12.90;50.90
38239;DHT22;24035;48.900;9.188;2022-11-03T15:45:13;12.90;99.90
38239;DHT22;24035;48.900;9.188;2022-11-03T15:47:39;12.80;99.90
38239;DHT22;24035;48.900;9.188;2022-11-03T15:50:06;12.80;99.90
38239;DHT22;24035;48.900;9.188;2022-11-03T15:52:32;12.80;99.90
38239;DHT22;24035;48.900;9.188;2022-11-03T15:54:58;12.70;99.90
38239;DHT22;24035;48.900;9.188;2022-11-03T15:57:24;12.70;99.90
38239;DHT22;24035;48.900;9.188;2022-11-03T15:59:50;12.60;99.90
38239;DHT22;24035;48.900;9.188;2022-11-03T16:02:16;12.60;99.90
38239;DHT22;24035;48.900;9.188;2022-11-03T16:04:42;12.60;99.90
38239;DHT22;24035;48.900;9.188;2022-11-03T16:07:08;12.60;99.90
38239;DHT22;24035;48.900;9.188;2022-11-03T16:09:34;12.60;1.00
38239;DHT22;24035;48.900;9.188;2022-11-03T16:11:59;12.60;99.90
38239;DHT22;24035;48.900;9.188;2022-11-03T16:14:25;12.60;99.90
38239;DHT22;24035;48.900;9.188;2022-11-03T16:16:51;12.60;99.90
38239;DHT22;24035;48.900;9.188;2022-11-03T16:19:16;12.60;1.00
38239;DHT22;24035;48.900;9.188;2022-11-03T16:21:42;12.60;1.00
38239;DHT22;24035;48.900;9.188;2022-11-03T16:24:08;12.50;1.00
38239;DHT22;24035;48.900;9.188;2022-11-03T16:26:34;12.40;1.00
38239;DHT22;24035;48.900;9.188;2022-11-03T16:28:59;12.40;1.00
38239;DHT22;24035;48.900;9.188;2022-11-03T16:31:25;12.30;1.00
38239;DHT22;24035;48.900;9.188;2022-11-03T16:33:51;12.30;1.00
38239;DHT22;24035;48.900;9.188;2022-11-03T16:36:17;12.20;1.00
38239;DHT22;24035;48.900;9.188;2022-11-03T16:38:44;12.30;1.00
38239;DHT22;24035;48.900;9.188;2022-11-03T16:41:11;12.30;1.00
38239;DHT22;24035;48.900;9.188;2022-11-03T16:43:36;12.30;1.00
38239;DHT22;24035;48.900;9.188;2022-11-03T16:46:03;12.30;1.00
38239;DHT22;24035;48.900;9.188;2022-11-03T16:48:29;12.30;1.00
38239;DHT22;24035;48.900;9.188;2022-11-03T16:50:54;12.30;1.00
38239;DHT22;24035;48.900;9.188;2022-11-03T16:53:25;12.30;1.00